sensor_id;sensor_type;location;lat;lon;timestamp;pressure;altitude;pressure_sealevel;temperature;humidity
75759;BME280;64371;47.566;19.086;2022-12-07T07:04:06;100342.41;;;3.07;88.78
75759;BME280;64371;47.566;19.086;2022-12-07T07:07:08;100328.22;;;3.14;88.60
75759;BME280;64371;47.566;19.086;2022-12-07T07:10:11;100340.00;;;3.17;89.13
75759;BME280;64371;47.566;19.086;2022-12-07T07:13:13;100338.63;;;3.26;89.07
75759;BME280;64371;47.566;19.086;2022-12-07T07:16:16;100329.88;;;3.32;87.98
75759;BME280;64371;47.566;19.086;2022-12-07T07:19:18;100341.03;;;3.44;88.39
75759;BME280;64371;47.566;19.086;2022-12-07T07:22:20;100335.22;;;3.54;87.51
75759;BME280;64371;47.566;19.086;2022-12-07T07:25:23;100339.63;;;3.65;87.10
75759;BME280;64371;47.566;19.086;2022-12-07T07:28:25;100336.50;;;3.79;86.12
75759;BME280;64371;47.566;19.086;2022-12-07T07:31:27;100338.78;;;3.92;85.04
75759;BME280;64371;47.566;19.086;2022-12-07T07:34:30;100334.00;;;4.01;83.71
75759;BME280;64371;47.566;19.086;2022-12-07T07:37:32;100346.16;;;3.95;83.95
75759;BME280;64371;47.566;19.086;2022-12-07T07:40:35;100338.31;;;3.95;84.17
75759;BME280;64371;47.566;19.086;2022-12-07T07:43:37;100335.53;;;3.85;83.96
75759;BME280;64371;47.566;19.086;2022-12-07T07:46:39;100334.19;;;3.83;84.61
75759;BME280;64371;47.566;19.086;2022-12-07T07:49:42;100326.25;;;3.89;84.71
75759;BME280;64371;47.566;19.086;2022-12-07T07:52:49;100335.34;;;4.03;84.25
75759;BME280;64371;47.566;19.086;2022-12-07T07:55:54;100343.47;;;4.07;84.34
75759;BME280;64371;47.566;19.086;2022-12-07T07:58:57;100342.63;;;4.18;84.36
75759;BME280;64371;47.566;19.086;2022-12-07T08:01:59;100343.63;;;4.34;83.67
75759;BME280;64371;47.566;19.086;2022-12-07T08:05:02;100353.44;;;4.43;83.27
75759;BME280;64371;47.566;19.086;2022-12-07T08:08:04;100347.44;;;4.59;82.82
75759;BME280;64371;47.566;19.086;2022-12-07T08:11:08;100350.25;;;4.75;82.17
75759;BME280;64371;47.566;19.086;2022-12-07T08:14:11;100345.78;;;4.92;81.79
75759;BME280;64371;47.566;19.086;2022-12-07T08:17:13;100344.88;;;5.03;80.70
75759;BME280;64371;47.566;19.086;2022-12-07T08:20:15;100352.06;;;5.12;79.83
75759;BME280;64371;47.566;19.086;2022-12-07T08:23:18;100362.19;;;5.30;79.69
75759;BME280;64371;47.566;19.086;2022-12-07T08:26:20;100365.91;;;5.56;78.91
75759;BME280;64371;47.566;19.086;2022-12-07T08:29:22;100362.25;;;5.84;77.48
75759;BME280;64371;47.566;19.086;2022-12-07T08:32:25;100366.38;;;6.01;76.95
75759;BME280;64371;47.566;19.086;2022-12-07T08:35:27;100364.16;;;6.15;74.89
75759;BME280;64371;47.566;19.086;2022-12-07T08:38:29;100371.31;;;6.30;74.91
75759;BME280;64371;47.566;19.086;2022-12-07T08:41:33;100366.28;;;6.55;74.03
75759;BME280;64371;47.566;19.086;2022-12-07T08:44:35;100371.91;;;6.74;73.65
75759;BME280;64371;47.566;19.086;2022-12-07T08:47:42;100380.69;;;6.94;73.80
75759;BME280;64371;47.566;19.086;2022-12-07T08:50:46;100373.69;;;7.10;73.12
75759;BME280;64371;47.566;19.086;2022-12-07T08:53:52;100377.66;;;7.17;73.14
75759;BME280;64371;47.566;19.086;2022-12-07T08:56:56;100375.63;;;7.34;71.86
75759;BME280;64371;47.566;19.086;2022-12-07T09:00:01;100381.47;;;7.52;70.17
75759;BME280;64371;47.566;19.086;2022-12-07T09:03:04;100375.72;;;7.55;70.64
75759;BME280;64371;47.566;19.086;2022-12-07T09:06:07;100365.78;;;7.62;69.46
75759;BME280;64371;47.566;19.086;2022-12-07T09:09:10;100379.19;;;7.75;69.51
75759;BME280;64371;47.566;19.086;2022-12-07T09:12:13;100376.31;;;7.97;68.62
75759;BME280;64371;47.566;19.086;2022-12-07T09:15:16;100374.00;;;8.16;67.00
75759;BME280;64371;47.566;19.086;2022-12-07T09:18:18;100363.50;;;8.11;66.29
75759;BME280;64371;47.566;19.086;2022-12-07T09:21:21;100365.31;;;7.95;67.61
75759;BME280;64371;47.566;19.086;2022-12-07T09:24:23;100361.41;;;8.18;66.37
75759;BME280;64371;47.566;19.086;2022-12-07T09:27:26;100340.88;;;8.75;63.99
75759;BME280;64371;47.566;19.086;2022-12-07T09:30:29;100345.00;;;9.06;62.89
75759;BME280;64371;47.566;19.086;2022-12-07T09:33:34;100345.41;;;9.33;61.56
75759;BME280;64371;47.566;19.086;2022-12-07T09:36:36;100344.88;;;9.85;61.34
75759;BME280;64371;47.566;19.086;2022-12-07T09:39:39;100339.16;;;11.41;55.86
75759;BME280;64371;47.566;19.086;2022-12-07T09:42:52;100343.00;;;13.23;50.70
75759;BME280;64371;47.566;19.086;2022-12-07T09:45:56;100335.56;;;13.11;49.30
75759;BME280;64371;47.566;19.086;2022-12-07T09:48:59;100338.94;;;11.93;52.58
75759;BME280;64371;47.566;19.086;2022-12-07T09:55:16;100330.91;;;9.85;56.93
75759;BME280;64371;47.566;19.086;2022-12-07T09:58:25;100329.84;;;9.42;58.67
75759;BME280;64371;47.566;19.086;2022-12-07T10:01:31;100318.00;;;8.81;59.35
75759;BME280;64371;47.566;19.086;2022-12-07T10:04:34;100319.63;;;8.51;61.48
75759;BME280;64371;47.566;19.086;2022-12-07T10:07:36;100315.81;;;9.08;59.87
75759;BME280;64371;47.566;19.086;2022-12-07T10:10:39;100321.22;;;9.75;58.11
75759;BME280;64371;47.566;19.086;2022-12-07T10:13:47;100318.50;;;9.90;58.01
75759;BME280;64371;47.566;19.086;2022-12-07T10:16:50;100313.78;;;9.87;58.24
75759;BME280;64371;47.566;19.086;2022-12-07T10:20:08;100315.69;;;9.28;59.40
75759;BME280;64371;47.566;19.086;2022-12-07T10:23:16;100320.44;;;9.31;59.43
75759;BME280;64371;47.566;19.086;2022-12-07T10:26:26;100314.56;;;9.49;59.01
75759;BME280;64371;47.566;19.086;2022-12-07T10:29:31;100318.09;;;9.24;58.96
75759;BME280;64371;47.566;19.086;2022-12-07T10:32:36;100318.66;;;9.11;59.31
75759;BME280;64371;47.566;19.086;2022-12-07T10:35:43;100310.06;;;9.01;58.59
75759;BME280;64371;47.566;19.086;2022-12-07T10:45:25;100292.59;;;8.36;61.27
75759;BME280;64371;47.566;19.086;2022-12-07T10:58:46;100296.78;;;8.17;62.32
75759;BME280;64371;47.566;19.086;2022-12-07T11:36:41;100277.91;;;7.74;62.79
75759;BME280;64371;47.566;19.086;2022-12-07T11:39:51;100274.97;;;7.61;62.99
75759;BME280;64371;47.566;19.086;2022-12-07T11:46:17;100283.63;;;7.46;63.53
75759;BME280;64371;47.566;19.086;2022-12-07T11:55:50;100280.94;;;7.16;64.65
75759;BME280;64371;47.566;19.086;2022-12-07T11:59:09;100286.91;;;7.01;64.96
75759;BME280;64371;47.566;19.086;2022-12-07T12:02:15;100281.66;;;6.96;65.46
75759;BME280;64371;47.566;19.086;2022-12-07T12:05:21;100271.97;;;6.97;64.83
75759;BME280;64371;47.566;19.086;2022-12-07T12:08:34;100267.25;;;6.99;64.37
75759;BME280;64371;47.566;19.086;2022-12-07T12:23:23;100239.53;;;6.51;63.98
75759;BME280;64371;47.566;19.086;2022-12-07T12:31:35;100239.53;;;6.51;65.26
75759;BME280;64371;47.566;19.086;2022-12-07T12:48:29;100230.06;;;7.12;63.87
75759;BME280;64371;47.566;19.086;2022-12-07T12:51:39;100233.25;;;7.19;63.03
75759;BME280;64371;47.566;19.086;2022-12-07T12:55:13;100231.16;;;7.26;63.43
75759;BME280;64371;47.566;19.086;2022-12-07T13:01:39;100243.44;;;7.20;61.43
75759;BME280;64371;47.566;19.086;2022-12-07T13:04:50;100241.59;;;7.11;61.84
75759;BME280;64371;47.566;19.086;2022-12-07T13:08:01;100238.94;;;7.01;60.78
75759;BME280;64371;47.566;19.086;2022-12-07T13:11:39;100244.97;;;7.01;61.54
75759;BME280;64371;47.566;19.086;2022-12-07T13:14:53;100244.47;;;7.09;61.63
75759;BME280;64371;47.566;19.086;2022-12-07T13:17:58;100245.25;;;7.15;62.09
75759;BME280;64371;47.566;19.086;2022-12-07T13:24:14;100252.13;;;7.21;61.40
75759;BME280;64371;47.566;19.086;2022-12-07T13:27:17;100253.94;;;7.25;61.88
75759;BME280;64371;47.566;19.086;2022-12-07T13:30:21;100255.00;;;7.24;62.48
75759;BME280;64371;47.566;19.086;2022-12-07T13:33:24;100253.38;;;7.03;60.68
75759;BME280;64371;47.566;19.086;2022-12-07T13:36:38;100257.50;;;6.89;62.72
75759;BME280;64371;47.566;19.086;2022-12-07T13:40:18;100258.81;;;6.87;62.63
75759;BME280;64371;47.566;19.086;2022-12-07T13:43:22;100264.50;;;6.74;63.36
75759;BME280;64371;47.566;19.086;2022-12-07T13:49:52;100264.00;;;6.30;65.14
75759;BME280;64371;47.566;19.086;2022-12-07T13:52:57;100267.28;;;6.10;66.51
75759;BME280;64371;47.566;19.086;2022-12-07T13:56:01;100260.34;;;5.94;67.06
75759;BME280;64371;47.566;19.086;2022-12-07T13:59:05;100263.69;;;5.84;68.01
75759;BME280;64371;47.566;19.086;2022-12-07T14:02:26;100271.13;;;5.71;69.13
75759;BME280;64371;47.566;19.086;2022-12-07T14:05:37;100270.25;;;5.60;69.74
75759;BME280;64371;47.566;19.086;2022-12-07T14:08:40;100254.41;;;5.45;70.60
75759;BME280;64371;47.566;19.086;2022-12-07T14:11:42;100249.16;;;5.40;70.47
75759;BME280;64371;47.566;19.086;2022-12-07T14:14:47;100262.94;;;5.35;70.88
75759;BME280;64371;47.566;19.086;2022-12-07T14:17:52;100263.19;;;5.34;71.73
75759;BME280;64371;47.566;19.086;2022-12-07T14:21:13;100269.09;;;5.24;71.46
75759;BME280;64371;47.566;19.086;2022-12-07T14:24:19;100265.22;;;5.05;71.91
75759;BME280;64371;47.566;19.086;2022-12-07T14:27:23;100268.13;;;4.87;72.24
75759;BME280;64371;47.566;19.086;2022-12-07T14:30:33;100285.59;;;4.82;72.38
75759;BME280;64371;47.566;19.086;2022-12-07T14:33:36;100269.78;;;4.72;73.05
75759;BME280;64371;47.566;19.086;2022-12-07T14:36:40;100273.59;;;4.64;72.99
75759;BME280;64371;47.566;19.086;2022-12-07T14:39:42;100269.50;;;4.51;73.50
75759;BME280;64371;47.566;19.086;2022-12-07T14:42:46;100275.78;;;4.34;74.23
75759;BME280;64371;47.566;19.086;2022-12-07T14:45:49;100273.19;;;4.17;74.61
75759;BME280;64371;47.566;19.086;2022-12-07T14:48:52;100273.84;;;4.08;74.20
75759;BME280;64371;47.566;19.086;2022-12-07T14:52:20;100283.97;;;4.04;73.66
75759;BME280;64371;47.566;19.086;2022-12-07T14:55:43;100291.84;;;3.92;74.17
75759;BME280;64371;47.566;19.086;2022-12-07T14:58:46;100290.19;;;3.86;74.77
75759;BME280;64371;47.566;19.086;2022-12-07T15:01:50;100293.44;;;3.77;74.95
75759;BME280;64371;47.566;19.086;2022-12-07T15:04:52;100293.59;;;3.70;75.26
75759;BME280;64371;47.566;19.086;2022-12-07T15:07:55;100290.41;;;3.68;75.26
75759;BME280;64371;47.566;19.086;2022-12-07T15:10:57;100292.22;;;3.68;75.42
75759;BME280;64371;47.566;19.086;2022-12-07T15:13:59;100293.16;;;3.62;74.79
75759;BME280;64371;47.566;19.086;2022-12-07T15:17:11;100288.75;;;3.62;75.20
75759;BME280;64371;47.566;19.086;2022-12-07T15:20:32;100290.28;;;3.47;75.31
75759;BME280;64371;47.566;19.086;2022-12-07T15:23:34;100303.91;;;3.37;76.11
75759;BME280;64371;47.566;19.086;2022-12-07T15:26:38;100305.50;;;3.38;76.26
75759;BME280;64371;47.566;19.086;2022-12-07T15:29:41;100299.41;;;3.32;76.80
75759;BME280;64371;47.566;19.086;2022-12-07T15:32:43;100300.66;;;3.30;76.93
75759;BME280;64371;47.566;19.086;2022-12-07T15:35:45;100301.16;;;3.15;77.33
75759;BME280;64371;47.566;19.086;2022-12-07T15:38:48;100311.72;;;3.09;77.61
75759;BME280;64371;47.566;19.086;2022-12-07T15:42:11;100315.47;;;3.01;77.99
75759;BME280;64371;47.566;19.086;2022-12-07T15:45:13;100323.50;;;3.00;77.84
75759;BME280;64371;47.566;19.086;2022-12-07T15:48:15;100319.66;;;2.91;78.35
75759;BME280;64371;47.566;19.086;2022-12-07T15:51:33;100317.97;;;2.85;78.08
75759;BME280;64371;47.566;19.086;2022-12-07T15:54:35;100323.06;;;2.80;78.48
75759;BME280;64371;47.566;19.086;2022-12-07T15:57:38;100324.09;;;2.79;78.44
75759;BME280;64371;47.566;19.086;2022-12-07T16:00:41;100321.16;;;2.75;79.16
75759;BME280;64371;47.566;19.086;2022-12-07T16:03:44;100330.75;;;2.86;78.68
75759;BME280;64371;47.566;19.086;2022-12-07T16:06:46;100327.16;;;2.87;78.32
75759;BME280;64371;47.566;19.086;2022-12-07T16:09:49;100319.13;;;2.77;79.06
75759;BME280;64371;47.566;19.086;2022-12-07T16:12:51;100316.50;;;2.77;78.76
75759;BME280;64371;47.566;19.086;2022-12-07T16:15:54;100324.22;;;2.72;79.74
75759;BME280;64371;47.566;19.086;2022-12-07T16:18:57;100315.19;;;2.63;79.87
75759;BME280;64371;47.566;19.086;2022-12-07T16:21:59;100314.63;;;2.61;79.64
75759;BME280;64371;47.566;19.086;2022-12-07T16:25:02;100322.19;;;2.62;80.03
75759;BME280;64371;47.566;19.086;2022-12-07T16:28:05;100319.59;;;2.62;80.57
75759;BME280;64371;47.566;19.086;2022-12-07T16:31:11;100323.56;;;2.53;80.35
75759;BME280;64371;47.566;19.086;2022-12-07T16:34:14;100325.47;;;2.35;80.72
75759;BME280;64371;47.566;19.086;2022-12-07T16:37:17;100320.03;;;2.25;81.10
75759;BME280;64371;47.566;19.086;2022-12-07T16:40:19;100324.88;;;2.21;81.58
75759;BME280;64371;47.566;19.086;2022-12-07T16:43:21;100326.91;;;2.08;82.05
75759;BME280;64371;47.566;19.086;2022-12-07T16:46:24;100328.94;;;2.06;82.32
75759;BME280;64371;47.566;19.086;2022-12-07T16:49:26;100326.34;;;2.06;82.69
75759;BME280;64371;47.566;19.086;2022-12-07T16:52:28;100324.06;;;1.97;83.08
75759;BME280;64371;47.566;19.086;2022-12-07T16:55:31;100335.03;;;2.11;83.02
75759;BME280;64371;47.566;19.086;2022-12-07T16:58:36;100332.00;;;2.14;82.36
75759;BME280;64371;47.566;19.086;2022-12-07T17:01:38;100326.13;;;2.07;82.37
75759;BME280;64371;47.566;19.086;2022-12-07T17:04:41;100328.81;;;2.00;82.83
75759;BME280;64371;47.566;19.086;2022-12-07T17:07:48;100336.06;;;1.98;82.98
75759;BME280;64371;47.566;19.086;2022-12-07T17:10:50;100334.81;;;2.01;82.99
75759;BME280;64371;47.566;19.086;2022-12-07T17:13:53;100343.75;;;2.05;83.04
75759;BME280;64371;47.566;19.086;2022-12-07T17:17:13;100343.38;;;1.90;82.39
75759;BME280;64371;47.566;19.086;2022-12-07T17:20:16;100349.25;;;1.67;83.41
75759;BME280;64371;47.566;19.086;2022-12-07T17:23:19;100348.44;;;1.55;84.77
75759;BME280;64371;47.566;19.086;2022-12-07T17:26:23;100331.47;;;1.53;85.14
75759;BME280;64371;47.566;19.086;2022-12-07T17:29:31;100331.19;;;1.61;85.02
75759;BME280;64371;47.566;19.086;2022-12-07T17:32:33;100330.44;;;1.72;84.78
75759;BME280;64371;47.566;19.086;2022-12-07T17:35:36;100328.28;;;1.69;84.94
75759;BME280;64371;47.566;19.086;2022-12-07T17:38:38;100342.28;;;1.68;84.37
75759;BME280;64371;47.566;19.086;2022-12-07T17:41:41;100345.31;;;1.65;84.59
75759;BME280;64371;47.566;19.086;2022-12-07T17:45:03;100345.56;;;1.75;84.13
75759;BME280;64371;47.566;19.086;2022-12-07T17:48:06;100346.38;;;1.75;83.89
75759;BME280;64371;47.566;19.086;2022-12-07T17:51:08;100341.75;;;1.77;83.68
75759;BME280;64371;47.566;19.086;2022-12-07T17:54:29;100350.91;;;1.80;84.79
75759;BME280;64371;47.566;19.086;2022-12-07T17:57:31;100355.19;;;1.74;83.92
75759;BME280;64371;47.566;19.086;2022-12-07T18:00:34;100363.50;;;1.65;84.54
75759;BME280;64371;47.566;19.086;2022-12-07T18:03:39;100359.41;;;1.57;85.05
75759;BME280;64371;47.566;19.086;2022-12-07T18:06:42;100367.72;;;1.48;85.50
75759;BME280;64371;47.566;19.086;2022-12-07T18:09:53;100366.28;;;1.33;85.75
75759;BME280;64371;47.566;19.086;2022-12-07T18:12:55;100363.06;;;1.20;85.78
75759;BME280;64371;47.566;19.086;2022-12-07T18:16:20;100373.72;;;1.12;85.96
75759;BME280;64371;47.566;19.086;2022-12-07T18:19:24;100376.81;;;1.02;85.86
75759;BME280;64371;47.566;19.086;2022-12-07T18:22:26;100373.16;;;0.92;86.05
75759;BME280;64371;47.566;19.086;2022-12-07T18:25:29;100380.06;;;0.80;86.42
75759;BME280;64371;47.566;19.086;2022-12-07T18:28:31;100362.16;;;0.72;88.12
75759;BME280;64371;47.566;19.086;2022-12-07T18:31:34;100364.38;;;0.68;87.64
75759;BME280;64371;47.566;19.086;2022-12-07T18:34:37;100365.91;;;0.76;88.44
75759;BME280;64371;47.566;19.086;2022-12-07T18:37:40;100350.91;;;0.78;88.03
75759;BME280;64371;47.566;19.086;2022-12-07T18:40:43;100361.88;;;0.80;88.43
75759;BME280;64371;47.566;19.086;2022-12-07T18:43:46;100364.25;;;0.81;87.05
75759;BME280;64371;47.566;19.086;2022-12-07T18:46:48;100363.75;;;0.73;86.98
75759;BME280;64371;47.566;19.086;2022-12-07T18:49:51;100357.81;;;0.65;86.93
75759;BME280;64371;47.566;19.086;2022-12-07T18:52:56;100354.28;;;0.60;87.39
75759;BME280;64371;47.566;19.086;2022-12-07T18:59:36;100369.47;;;0.56;86.84
75759;BME280;64371;47.566;19.086;2022-12-07T19:02:51;100367.19;;;0.42;87.04
75759;BME280;64371;47.566;19.086;2022-12-07T19:05:54;100371.88;;;0.33;88.90
75759;BME280;64371;47.566;19.086;2022-12-07T19:08:59;100374.06;;;0.30;89.00
75759;BME280;64371;47.566;19.086;2022-12-07T19:12:01;100372.69;;;0.27;89.34
75759;BME280;64371;47.566;19.086;2022-12-07T19:15:07;100371.91;;;0.27;89.43
75759;BME280;64371;47.566;19.086;2022-12-07T19:18:09;100373.09;;;0.31;89.14
75759;BME280;64371;47.566;19.086;2022-12-07T19:21:11;100381.06;;;0.29;88.85
75759;BME280;64371;47.566;19.086;2022-12-07T19:24:14;100385.81;;;0.32;89.24
75759;BME280;64371;47.566;19.086;2022-12-07T19:27:24;100375.44;;;0.32;89.28
75759;BME280;64371;47.566;19.086;2022-12-07T19:30:28;100383.97;;;0.39;89.35
75759;BME280;64371;47.566;19.086;2022-12-07T19:33:30;100386.94;;;0.43;89.03
75759;BME280;64371;47.566;19.086;2022-12-07T19:36:32;100382.34;;;0.45;88.39
75759;BME280;64371;47.566;19.086;2022-12-07T19:39:34;100372.88;;;0.57;89.12
75759;BME280;64371;47.566;19.086;2022-12-07T19:42:37;100377.63;;;0.60;87.87
75759;BME280;64371;47.566;19.086;2022-12-07T19:45:39;100375.63;;;0.62;87.69
75759;BME280;64371;47.566;19.086;2022-12-07T19:48:41;100376.28;;;0.51;88.33
75759;BME280;64371;47.566;19.086;2022-12-07T19:51:46;100379.53;;;0.46;88.56
75759;BME280;64371;47.566;19.086;2022-12-07T19:54:48;100372.03;;;0.38;87.94
75759;BME280;64371;47.566;19.086;2022-12-07T19:57:51;100368.94;;;0.23;87.75
75759;BME280;64371;47.566;19.086;2022-12-07T20:00:53;100374.84;;;0.06;87.39
75759;BME280;64371;47.566;19.086;2022-12-07T20:03:56;100375.53;;;-0.06;88.23
75759;BME280;64371;47.566;19.086;2022-12-07T20:06:59;100381.13;;;-0.09;88.15
75759;BME280;64371;47.566;19.086;2022-12-07T20:10:01;100380.53;;;-0.11;89.83
75759;BME280;64371;47.566;19.086;2022-12-07T20:13:04;100379.41;;;0.10;90.41
75759;BME280;64371;47.566;19.086;2022-12-07T20:16:25;100392.69;;;0.20;89.86
75759;BME280;64371;47.566;19.086;2022-12-07T20:19:28;100392.75;;;0.14;88.73
75759;BME280;64371;47.566;19.086;2022-12-07T20:22:30;100386.53;;;0.15;88.04
75759;BME280;64371;47.566;19.086;2022-12-07T20:25:35;100394.13;;;0.16;89.43
75759;BME280;64371;47.566;19.086;2022-12-07T20:28:37;100390.94;;;0.14;88.84
75759;BME280;64371;47.566;19.086;2022-12-07T20:31:45;100387.78;;;0.12;88.20
75759;BME280;64371;47.566;19.086;2022-12-07T20:34:48;100394.75;;;0.12;88.77
75759;BME280;64371;47.566;19.086;2022-12-07T20:37:50;100398.28;;;0.17;88.59
75759;BME280;64371;47.566;19.086;2022-12-07T20:40:53;100407.72;;;0.12;87.98
75759;BME280;64371;47.566;19.086;2022-12-07T20:43:59;100402.13;;;0.08;87.74
75759;BME280;64371;47.566;19.086;2022-12-07T20:47:03;100419.94;;;-0.02;87.85
75759;BME280;64371;47.566;19.086;2022-12-07T20:50:06;100404.81;;;-0.05;87.85
75759;BME280;64371;47.566;19.086;2022-12-07T20:53:09;100409.78;;;-0.04;88.21
75759;BME280;64371;47.566;19.086;2022-12-07T20:56:25;100405.88;;;-0.19;86.74
75759;BME280;64371;47.566;19.086;2022-12-07T20:59:28;100404.34;;;-0.27;87.61
75759;BME280;64371;47.566;19.086;2022-12-07T21:02:32;100419.44;;;-0.17;88.15
75759;BME280;64371;47.566;19.086;2022-12-07T21:05:34;100420.03;;;-0.22;87.29
75759;BME280;64371;47.566;19.086;2022-12-07T21:08:36;100412.69;;;-0.25;88.36
75759;BME280;64371;47.566;19.086;2022-12-07T21:11:39;100419.09;;;-0.27;87.72
75759;BME280;64371;47.566;19.086;2022-12-07T21:14:43;100417.91;;;-0.38;87.35
75759;BME280;64371;47.566;19.086;2022-12-07T21:17:45;100409.59;;;-0.46;88.16
75759;BME280;64371;47.566;19.086;2022-12-07T21:20:47;100407.06;;;-0.59;87.49
75759;BME280;64371;47.566;19.086;2022-12-07T21:23:51;100402.84;;;-0.54;89.02
75759;BME280;64371;47.566;19.086;2022-12-07T21:27:02;100402.28;;;-0.56;89.60
75759;BME280;64371;47.566;19.086;2022-12-07T21:30:05;100400.47;;;-0.55;89.53
75759;BME280;64371;47.566;19.086;2022-12-07T21:33:07;100413.22;;;-0.60;89.15
75759;BME280;64371;47.566;19.086;2022-12-07T21:36:15;100413.66;;;-0.63;88.90
75759;BME280;64371;47.566;19.086;2022-12-07T21:39:18;100412.47;;;-0.74;88.37
75759;BME280;64371;47.566;19.086;2022-12-07T21:42:20;100411.25;;;-0.65;89.66
75759;BME280;64371;47.566;19.086;2022-12-07T21:45:22;100408.69;;;-0.72;89.25
75759;BME280;64371;47.566;19.086;2022-12-07T21:48:25;100423.81;;;-0.75;88.66
75759;BME280;64371;47.566;19.086;2022-12-07T21:51:28;100421.63;;;-0.72;90.44
75759;BME280;64371;47.566;19.086;2022-12-07T21:54:31;100427.38;;;-0.63;90.91
75759;BME280;64371;47.566;19.086;2022-12-07T21:57:34;100422.72;;;-0.41;90.94
75759;BME280;64371;47.566;19.086;2022-12-07T22:00:38;100430.72;;;-0.49;90.53
75759;BME280;64371;47.566;19.086;2022-12-07T22:03:40;100430.47;;;-0.35;91.21
75759;BME280;64371;47.566;19.086;2022-12-07T22:06:43;100428.81;;;-0.23;90.77
75759;BME280;64371;47.566;19.086;2022-12-07T22:09:46;100425.66;;;-0.25;89.90
75759;BME280;64371;47.566;19.086;2022-12-07T22:12:48;100429.84;;;-0.30;89.05
75759;BME280;64371;47.566;19.086;2022-12-07T22:15:50;100426.84;;;-0.27;88.92
75759;BME280;64371;47.566;19.086;2022-12-07T22:18:53;100428.47;;;-0.33;89.02
75759;BME280;64371;47.566;19.086;2022-12-07T22:21:55;100425.66;;;-0.31;88.81
75759;BME280;64371;47.566;19.086;2022-12-07T22:24:59;100421.13;;;-0.42;88.77
75759;BME280;64371;47.566;19.086;2022-12-07T22:28:01;100400.06;;;-0.52;88.22
75759;BME280;64371;47.566;19.086;2022-12-07T22:31:05;100399.91;;;-0.64;88.62
75759;BME280;64371;47.566;19.086;2022-12-07T22:34:14;100388.75;;;-0.64;89.24
75759;BME280;64371;47.566;19.086;2022-12-07T22:37:16;100386.38;;;-0.73;89.15
75759;BME280;64371;47.566;19.086;2022-12-07T22:40:19;100395.78;;;-0.78;89.84
75759;BME280;64371;47.566;19.086;2022-12-07T22:43:22;100391.22;;;-0.83;90.25
75759;BME280;64371;47.566;19.086;2022-12-07T22:46:25;100400.50;;;-0.75;91.14
75759;BME280;64371;47.566;19.086;2022-12-07T22:49:27;100403.72;;;-0.73;91.67
75759;BME280;64371;47.566;19.086;2022-12-07T22:52:30;100408.50;;;-0.77;90.71
75759;BME280;64371;47.566;19.086;2022-12-07T22:55:32;100398.53;;;-0.73;89.36
75759;BME280;64371;47.566;19.086;2022-12-07T22:58:34;100403.47;;;-0.65;89.00
75759;BME280;64371;47.566;19.086;2022-12-07T23:01:36;100402.91;;;-0.74;88.85
75759;BME280;64371;47.566;19.086;2022-12-07T23:04:39;100409.09;;;-0.81;88.53
75759;BME280;64371;47.566;19.086;2022-12-07T23:07:41;100411.91;;;-0.89;89.10
75759;BME280;64371;47.566;19.086;2022-12-07T23:10:46;100405.34;;;-0.92;89.62
75759;BME280;64371;47.566;19.086;2022-12-07T23:13:48;100406.50;;;-0.75;90.16
75759;BME280;64371;47.566;19.086;2022-12-07T23:16:51;100395.13;;;-0.67;89.83
75759;BME280;64371;47.566;19.086;2022-12-07T23:19:53;100403.28;;;-0.63;90.61
75759;BME280;64371;47.566;19.086;2022-12-07T23:22:57;100398.31;;;-0.65;90.35
75759;BME280;64371;47.566;19.086;2022-12-07T23:26:07;100391.16;;;-0.63;90.38
75759;BME280;64371;47.566;19.086;2022-12-07T23:29:11;100397.69;;;-0.60;89.91
75759;BME280;64371;47.566;19.086;2022-12-07T23:32:18;100400.66;;;-0.57;89.60
75759;BME280;64371;47.566;19.086;2022-12-07T23:35:20;100390.31;;;-0.57;89.14
75759;BME280;64371;47.566;19.086;2022-12-07T23:38:23;100407.84;;;-0.59;88.48
75759;BME280;64371;47.566;19.086;2022-12-07T23:41:28;100403.88;;;-0.61;88.61
75759;BME280;64371;47.566;19.086;2022-12-07T23:44:31;100397.91;;;-0.62;88.92
75759;BME280;64371;47.566;19.086;2022-12-07T23:47:33;100405.84;;;-0.57;89.54
75759;BME280;64371;47.566;19.086;2022-12-07T23:50:36;100407.00;;;-0.46;89.81
75759;BME280;64371;47.566;19.086;2022-12-07T23:53:41;100400.63;;;-0.44;89.27
75759;BME280;64371;47.566;19.086;2022-12-07T23:56:43;100391.88;;;-0.49;88.53
75759;BME280;64371;47.566;19.086;2022-12-07T23:59:46;100399.03;;;-0.45;89.08
